< Cyclone 200202 2002 Season Cyclone 200204 >
Cyclone 200203 (BERNIE)
General InformationDetailed Track InformationTrack Information on Google MapsList of All Images || ResourceGoogle EarthGE AnimationAtom FeedGeoJSON
Detalied Best Track Wind (Time Zone = UTC)
Year Month Day Hour Lat. Long. Wind (kt) Gust (kt) Direc. of Major Storm Axis Radius of Major Storm Axis (nm) Radius of Minor Storm Axis (nm) Direc. of Major Gale Axis Radius of Major Gale Axis (nm) Radius of Minor Gale Axis (nm) Image
2001 12 30 21 -11.4 137.5 15 -1 symmetric - - symmetric - - Image
2001 12 31 00 -11.6 137.5 15 -1 symmetric - - symmetric - - Image
2001 12 31 06 -12.0 137.8 20 -1 symmetric - - symmetric - - Image
2001 12 31 12 -12.1 137.9 20 -1 symmetric - - symmetric - - Image
2001 12 31 18 -12.4 137.9 20 -1 symmetric - - symmetric - - Image
2002 1 1 00 -12.6 137.9 20 -1 symmetric - - symmetric - - Image
2002 1 1 06 -13.0 138.0 25 -1 symmetric - - symmetric - - Image
2002 1 1 12 -13.6 138.6 25 -1 symmetric - - symmetric - - Image
2002 1 1 18 -13.7 138.8 25 -1 symmetric - - symmetric - - Image
2002 1 2 00 -14.1 139.2 25 -1 symmetric - - symmetric - - Image
2002 1 2 06 -14.3 139.2 25 -1 symmetric - - symmetric - - Image
2002 1 2 12 -14.4 139.0 25 -1 symmetric - - symmetric - - Image
2002 1 2 18 -14.5 139.0 30 -1 symmetric - - symmetric - - Image
2002 1 3 00 -14.5 139.0 33 -1 symmetric - - symmetric - - Image
2002 1 3 06 -14.6 138.9 45 -1 symmetric - - symmetric - - Image
2002 1 3 12 -14.9 139.0 50 -1 symmetric - - symmetric - - Image
2002 1 3 18 -15.2 139.1 55 -1 symmetric - - symmetric - - Image
2002 1 4 00 -15.4 139.1 50 -1 symmetric - - symmetric - - Image
2002 1 4 06 -16.0 139.0 45 -1 symmetric - - symmetric - - Image
2002 1 4 12 -16.4 138.8 40 -1 symmetric - - symmetric - - Image
2002 1 4 18 -16.5 138.6 35 -1 symmetric - - symmetric - - Image
2002 1 5 00 -16.6 138.4 33 -1 symmetric - - symmetric - - Image
2002 1 5 06 -17.0 138.3 30 -1 symmetric - - symmetric - - Image
2002 1 5 12 -17.3 138.0 25 -1 symmetric - - symmetric - - Image
2002 1 5 18 -17.8 137.7 25 -1 symmetric - - symmetric - - Image
2002 1 6 00 -18.4 137.5 20 -1 symmetric - - symmetric - - Image
2002 1 6 06 -18.7 137.4 20 -1 symmetric - - symmetric - - Image
< Cyclone 200202 2002 Season Cyclone 200204 >

Help